US Aviators Van Nuys Flight School Los Angeles Pilot school at Van Nuys Simulator Flight Training Profesional Pilot Instruction Learn to Fly

U.S. Aviators

Learn to fly here! (818) 779-2105

Weather at Van Nuys Airport

Observed:Thu May 26, 20:51 PDT
Age:38 min ago
Wind:ESE at 2 mph
Visibility:10 miles
Clouds:Clear skies
Temperature:63°F (17°C)
Dewpoint:48°F (9°C)
Humidity:59%
Barometer:1014 hPa (29.95 in Hg)

METAR

KVNY 270351Z 11004KT 10SM CLR 17/09 A2995 RMK AO2 SLP138 T01670094